EDHI Airport Information

Runway Information
Runway 05 Length 8629 ft width 148 ft
Elevation 16 ft Threshold 341 ft Heading 52
Runway 23 Length 8629 ft Width 148 ft
Elevation 15 ft Threshold 2474 ft Heading 232
Airport Frequencies
Type A/D Name BREMEN RAD Frequency 124.225 MHZ
Type AFIS Name BREMEN INF Frequency 125.1 MHZ
Type ATIS Name ATIS Frequency 123.125 MHZ
Type TWR Name FINKENWERD Frequency 123.25 MHZ
Airport Navaids
Airport Weather Information & NOTAM
ADDS - METARS form results

(0334 UTC 18 October 2021)
Data provider http://aviationweather.gov/metar/data/
 
METAR text: EDHI 180320Z AUTO 25004KT 9999 // BKN076/// 10/07 Q1020
Conditions at: EDHI (HAMBURG/FINKENWE, DE) observed 0320 UTC 18 October 2021
Temperature: 10.0°C (50°F)
Dewpoint: 7.0°C (45°F) [RH = 82%]
Pressure (altimeter): 30.12 inches Hg (1020.0 mb)
Winds: from the WSW (250 degrees) at 5 MPH (4 knots; 2.1 m/s)
Visibility: 6 or more miles (10+ km)
Ceiling: 7600 feet AGL
Clouds: broken clouds at 7600 feet AGL
Weather: no significant weather observed at this time

METAR text: EDHI 180250Z AUTO 21004KT 9999 // BKN079/// BKN140/// 09/07 Q1020
Conditions at: EDHI (HAMBURG/FINKENWE, DE) observed 0250 UTC 18 October 2021
Temperature: 9.0°C (48°F)
Dewpoint: 7.0°C (45°F) [RH = 87%]
Pressure (altimeter): 30.12 inches Hg (1020.0 mb)
Winds: from the SSW (210 degrees) at 5 MPH (4 knots; 2.1 m/s)
Visibility: 6 or more miles (10+ km)
Ceiling: 7900 feet AGL
Clouds: broken clouds at 7900 feet AGL
broken clouds at 14000 feet AGL
Weather: no significant weather observed at this time

Forecast for: EDHI (HAMBURG/FINKENWE, DE)
Text: TAF EDHI 180300Z 1804/1812 22006KT 9999 FEW040
Forecast period: 0400 to 1200 UTC 18 October 2021
Forecast type: FROM: standard forecast or significant change
Winds: from the SW (220 degrees) at 7 MPH (6 knots; 3.1 m/s)
Visibility: 6 or more miles (10+ km)
Ceiling: at least 12,000 feet AGL
Clouds: few clouds at 4000 feet AGL
Weather: no significant weather forecast for this period